This is the latest recevied weather packets stored in our database for station/object K0CPM-2. If no packets are shown the sender has not sent any weather packets the latest 1 day(s).
| Time | Temp. | Humidity | Pressure | Rain* | Wind** | Luminosity | Snow |
|---|---|---|---|---|---|---|---|
| 1778087748 | 27.22° C | 90% | 1011.3 hPa | 0 mm | - | - | - |
| 1778085936 | 27.78° C | 85% | 1011.1 hPa | 0 mm | - | - | - |
| 1778085037 | 27.78° C | 84% | 1011 hPa | 0 mm | - | - | - |
| 1778083229 | 27.78° C | 85% | 1010.7 hPa | 0 mm | - | - | - |
| 1778082325 | 27.78° C | 87% | 1010.7 hPa | 0 mm | - | - | - |
| 1778081422 | 27.22° C | 87% | 1010.6 hPa | 0 mm | - | - | - |
| 1778077811 | 26.67° C | 90% | 1010.3 hPa | 0 mm | - | - | - |
| 1778076006 | 25.56° C | 92% | 1010 hPa | 0 mm | - | - | - |
| 1778075110 | 25.56° C | 93% | 1010.1 hPa | 0 mm | - | - | - |
| 1778074261 | 25° C | 94% | 1010.1 hPa | 0 mm | - | - | - |
| 1778070653 | 23.89° C | 96% | 1009.8 hPa | 0 mm | - | - | - |
| 1778068848 | 23.33° C | 96% | 1009.3 hPa | 0.25 mm | - | - | - |
| 1778067048 | 23.33° C | 95% | 1009.2 hPa | 0.25 mm | - | - | - |
| 1778063445 | 23.89° C | 92% | 1008.8 hPa | 0 mm | - | - | - |
| 1778062545 | 23.89° C | 92% | 1008.7 hPa | 0 mm | - | - | - |
| 1778060743 | 23.89° C | 92% | 1008.7 hPa | 0 mm | - | - | - |
| 1778058941 | 23.33° C | 91% | 1008.7 hPa | 0 mm | - | - | - |
| 1778057133 | 23.33° C | 91% | 1008.8 hPa | 0 mm | - | - | - |
| 1778056229 | 23.33° C | 90% | 1008.8 hPa | 0 mm | - | - | - |
| 1778055331 | 23.33° C | 90% | 1008.6 hPa | 0 mm | - | - | - |
| 1778052613 | 22.78° C | 91% | 1008.7 hPa | 0 mm | - | - | - |
| 1778051710 | 22.78° C | 92% | 1008.8 hPa | 0 mm | - | - | - |
| 1778049959 | 22.78° C | 92% | 1009.1 hPa | 0 mm | - | - | - |
| 1778049077 | 22.78° C | 92% | 1009.1 hPa | 0 mm | - | - | - |
| 1778048150 | 22.78° C | 92% | 1009.1 hPa | 0 mm | - | - | - |
* Rain latest hour (hover to see other rain measurements)
** Current wind speed in m/s (hover to see current wind gust speed)